This is the latest recevied weather packets stored in our database for station/object EA1BQO-1. If no packets are shown the sender has not sent any weather packets the latest 10 day(s).
| Time | Temp. | Humidity | Pressure | Rain* | Wind** | Luminosity | Snow |
|---|---|---|---|---|---|---|---|
| 1777843947 | 9.44° C | 99% | 1010 hPa | 0 mm | - | - | - |
| 1777843346 | 9.44° C | 99% | 1010.1 hPa | 0 mm | - | - | - |
| 1777842747 | 9.44° C | 99% | 1010 hPa | 0 mm | - | - | - |
| 1777842146 | 10° C | 99% | 1009.8 hPa | 0 mm | - | - | - |
| 1777841546 | 10° C | 99% | 1009.8 hPa | 0 mm | - | - | - |
| 1777840946 | 10° C | 99% | 1009.7 hPa | 0.25 mm | - | - | - |
| 1777840346 | 10° C | 99% | 1009.6 hPa | 0.25 mm | - | - | - |
| 1777839746 | 10° C | 98% | 1009.6 hPa | 0.25 mm | - | - | - |
| 1777839146 | 10.56° C | 96% | 1009.4 hPa | 0.25 mm | - | - | - |
| 1777838546 | 10.56° C | 95% | 1009.3 hPa | 0.25 mm | - | - | - |
| 1777837946 | 10.56° C | 94% | 1009.1 hPa | 0.25 mm | - | - | - |
| 1777837346 | 11.11° C | 94% | 1008.9 hPa | 0 mm | - | - | - |
| 1777836746 | 11.11° C | 92% | 1008.9 hPa | 0 mm | - | - | - |
| 1777836146 | 11.67° C | 91% | 1008.6 hPa | 0 mm | - | - | - |
| 1777835546 | 11.67° C | 90% | 1008.5 hPa | 0 mm | - | - | - |
| 1777834946 | 12.22° C | 89% | 1008.3 hPa | 0 mm | - | - | - |
| 1777834346 | 12.22° C | 88% | 1008.3 hPa | 6.1 mm | - | - | - |
| 1777833746 | 12.22° C | 87% | 1008.4 hPa | 6.1 mm | - | - | - |
| 1777833146 | 12.78° C | 85% | 1008.4 hPa | 6.1 mm | - | - | - |
| 1777832546 | 12.78° C | 84% | 1008.5 hPa | 6.1 mm | - | - | - |
| 1777832158 | 16.11° C | 50% | 1011.6 hPa | 0 mm | - | - | - |
| 1777831558 | 16.11° C | 50% | 1011.6 hPa | 0 mm | - | - | - |
| 1777830958 | 16.11° C | 50% | 1011.6 hPa | 0 mm | - | - | - |
| 1777830358 | 16.11° C | 50% | 1011.6 hPa | 0 mm | - | - | - |
| 1777829774 | 16.11° C | 50% | 1011.6 hPa | 0 mm | - | - | - |
* Rain latest hour (hover to see other rain measurements)
** Current wind speed in m/s (hover to see current wind gust speed)